sensor_id;sensor_type;location;lat;lon;timestamp;temperature;humidity
77727;SHT30;68312;53.502;10.030;2023-11-21T00:01:15;8.79;96.45
77727;SHT30;68312;53.502;10.030;2023-11-21T00:03:42;8.72;96.50
77727;SHT30;68312;53.502;10.030;2023-11-21T00:06:08;8.67;96.52
77727;SHT30;68312;53.502;10.030;2023-11-21T00:08:37;8.64;96.56
77727;SHT30;68312;53.502;10.030;2023-11-21T00:11:03;8.62;96.56
77727;SHT30;68312;53.502;10.030;2023-11-21T00:13:31;8.57;96.58
77727;SHT30;68312;53.502;10.030;2023-11-21T00:15:57;8.56;96.64
77727;SHT30;68312;53.502;10.030;2023-11-21T00:18:22;8.53;96.62
77727;SHT30;68312;53.502;10.030;2023-11-21T00:20:48;8.49;96.45
77727;SHT30;68312;53.502;10.030;2023-11-21T00:23:13;8.41;96.16
77727;SHT30;68312;53.502;10.030;2023-11-21T00:25:38;8.35;96.14
77727;SHT30;68312;53.502;10.030;2023-11-21T00:28:05;8.29;96.14
77727;SHT30;68312;53.502;10.030;2023-11-21T00:30:31;8.24;96.08
77727;SHT30;68312;53.502;10.030;2023-11-21T00:32:57;8.22;96.16
77727;SHT30;68312;53.502;10.030;2023-11-21T00:35:22;8.18;96.22
77727;SHT30;68312;53.502;10.030;2023-11-21T00:37:47;8.12;96.17
77727;SHT30;68312;53.502;10.030;2023-11-21T00:40:15;8.06;96.13
77727;SHT30;68312;53.502;10.030;2023-11-21T00:42:41;8.04;96.18
77727;SHT30;68312;53.502;10.030;2023-11-21T00:45:07;7.97;96.00
77727;SHT30;68312;53.502;10.030;2023-11-21T00:47:33;7.97;96.01
77727;SHT30;68312;53.502;10.030;2023-11-21T00:49:58;7.88;96.02
77727;SHT30;68312;53.502;10.030;2023-11-21T00:52:24;7.91;96.02
77727;SHT30;68312;53.502;10.030;2023-11-21T00:54:50;7.83;95.76
77727;SHT30;68312;53.502;10.030;2023-11-21T00:57:15;7.77;95.85
77727;SHT30;68312;53.502;10.030;2023-11-21T00:59:40;7.71;95.89
77727;SHT30;68312;53.502;10.030;2023-11-21T01:02:06;7.70;95.93
77727;SHT30;68312;53.502;10.030;2023-11-21T01:04:35;7.69;95.86
77727;SHT30;68312;53.502;10.030;2023-11-21T01:07:00;7.70;95.77
77727;SHT30;68312;53.502;10.030;2023-11-21T01:09:26;7.66;95.60
77727;SHT30;68312;53.502;10.030;2023-11-21T01:11:51;7.56;95.49
77727;SHT30;68312;53.502;10.030;2023-11-21T01:14:17;7.56;95.56
77727;SHT30;68312;53.502;10.030;2023-11-21T01:16:43;7.47;95.53
77727;SHT30;68312;53.502;10.030;2023-11-21T01:19:08;7.49;95.36
77727;SHT30;68312;53.502;10.030;2023-11-21T01:21:34;7.43;95.24
77727;SHT30;68312;53.502;10.030;2023-11-21T01:23:59;7.39;95.33
77727;SHT30;68312;53.502;10.030;2023-11-21T01:26:25;7.35;95.17
77727;SHT30;68312;53.502;10.030;2023-11-21T01:28:50;7.32;95.35
77727;SHT30;68312;53.502;10.030;2023-11-21T01:31:16;7.33;95.33
77727;SHT30;68312;53.502;10.030;2023-11-21T01:33:41;7.26;95.24
77727;SHT30;68312;53.502;10.030;2023-11-21T01:36:07;7.27;95.25
77727;SHT30;68312;53.502;10.030;2023-11-21T01:38:33;7.22;94.87
77727;SHT30;68312;53.502;10.030;2023-11-21T01:40:59;7.19;94.79
77727;SHT30;68312;53.502;10.030;2023-11-21T01:43:27;7.16;94.81
77727;SHT30;68312;53.502;10.030;2023-11-21T01:45:54;7.18;94.60
77727;SHT30;68312;53.502;10.030;2023-11-21T01:48:23;7.11;94.56
77727;SHT30;68312;53.502;10.030;2023-11-21T01:50:48;7.08;94.38
77727;SHT30;68312;53.502;10.030;2023-11-21T01:53:14;7.12;94.51
77727;SHT30;68312;53.502;10.030;2023-11-21T01:55:41;7.06;94.09
77727;SHT30;68312;53.502;10.030;2023-11-21T01:58:09;7.04;94.31
77727;SHT30;68312;53.502;10.030;2023-11-21T02:00:35;7.02;94.30
77727;SHT30;68312;53.502;10.030;2023-11-21T02:03:00;6.99;94.21
77727;SHT30;68312;53.502;10.030;2023-11-21T02:05:26;6.96;94.07
77727;SHT30;68312;53.502;10.030;2023-11-21T02:07:52;6.96;93.94
77727;SHT30;68312;53.502;10.030;2023-11-21T02:10:18;6.92;93.98
77727;SHT30;68312;53.502;10.030;2023-11-21T02:12:49;6.88;93.80
77727;SHT30;68312;53.502;10.030;2023-11-21T02:15:18;6.88;93.97
77727;SHT30;68312;53.502;10.030;2023-11-21T02:17:48;6.84;93.54
77727;SHT30;68312;53.502;10.030;2023-11-21T02:20:17;6.81;93.68
77727;SHT30;68312;53.502;10.030;2023-11-21T02:22:53;6.80;93.57
77727;SHT30;68312;53.502;10.030;2023-11-21T02:25:26;6.80;93.63
77727;SHT30;68312;53.502;10.030;2023-11-21T02:27:59;6.81;93.62
77727;SHT30;68312;53.502;10.030;2023-11-21T02:30:24;6.78;93.55
77727;SHT30;68312;53.502;10.030;2023-11-21T02:32:51;6.74;93.49
77727;SHT30;68312;53.502;10.030;2023-11-21T02:35:20;6.74;93.41
77727;SHT30;68312;53.502;10.030;2023-11-21T02:37:51;6.73;93.43
77727;SHT30;68312;53.502;10.030;2023-11-21T02:40:17;6.71;93.37
77727;SHT30;68312;53.502;10.030;2023-11-21T02:42:50;6.73;93.28
77727;SHT30;68312;53.502;10.030;2023-11-21T02:45:20;6.74;93.01
77727;SHT30;68312;53.502;10.030;2023-11-21T02:47:47;6.71;92.70
77727;SHT30;68312;53.502;10.030;2023-11-21T02:50:14;6.70;92.91
77727;SHT30;68312;53.502;10.030;2023-11-21T02:52:39;6.64;93.01
77727;SHT30;68312;53.502;10.030;2023-11-21T02:55:08;6.65;93.02
77727;SHT30;68312;53.502;10.030;2023-11-21T02:57:33;6.64;92.79
77727;SHT30;68312;53.502;10.030;2023-11-21T02:59:59;6.65;92.88
77727;SHT30;68312;53.502;10.030;2023-11-21T03:02:25;6.63;92.48
77727;SHT30;68312;53.502;10.030;2023-11-21T03:04:51;6.58;92.24
77727;SHT30;68312;53.502;10.030;2023-11-21T03:07:17;6.63;92.26
77727;SHT30;68312;53.502;10.030;2023-11-21T03:09:45;6.61;92.20
77727;SHT30;68312;53.502;10.030;2023-11-21T03:12:11;6.63;92.05
77727;SHT30;68312;53.502;10.030;2023-11-21T03:14:38;6.61;91.76
77727;SHT30;68312;53.502;10.030;2023-11-21T03:17:04;6.60;91.99
77727;SHT30;68312;53.502;10.030;2023-11-21T03:19:30;6.57;92.09
77727;SHT30;68312;53.502;10.030;2023-11-21T03:21:56;6.57;92.04
77727;SHT30;68312;53.502;10.030;2023-11-21T03:24:21;6.53;92.02
77727;SHT30;68312;53.502;10.030;2023-11-21T03:26:48;6.48;91.92
77727;SHT30;68312;53.502;10.030;2023-11-21T03:29:14;6.48;91.99
77727;SHT30;68312;53.502;10.030;2023-11-21T03:31:40;6.46;92.03
77727;SHT30;68312;53.502;10.030;2023-11-21T03:34:06;6.44;92.12
77727;SHT30;68312;53.502;10.030;2023-11-21T03:36:31;6.41;92.21
77727;SHT30;68312;53.502;10.030;2023-11-21T03:38:57;6.38;92.26
77727;SHT30;68312;53.502;10.030;2023-11-21T03:41:22;6.37;92.32
77727;SHT30;68312;53.502;10.030;2023-11-21T03:43:48;6.36;92.41
77727;SHT30;68312;53.502;10.030;2023-11-21T03:46:13;6.29;92.51
77727;SHT30;68312;53.502;10.030;2023-11-21T03:48:39;6.25;92.67
77727;SHT30;68312;53.502;10.030;2023-11-21T03:51:05;6.22;92.69
77727;SHT30;68312;53.502;10.030;2023-11-21T03:53:30;6.19;92.79
77727;SHT30;68312;53.502;10.030;2023-11-21T03:55:56;6.13;92.81
77727;SHT30;68312;53.502;10.030;2023-11-21T03:58:21;6.09;93.06
77727;SHT30;68312;53.502;10.030;2023-11-21T04:00:47;6.06;93.14
77727;SHT30;68312;53.502;10.030;2023-11-21T04:03:14;6.02;93.29
77727;SHT30;68312;53.502;10.030;2023-11-21T04:05:40;6.02;93.44
77727;SHT30;68312;53.502;10.030;2023-11-21T04:08:07;6.02;93.48
77727;SHT30;68312;53.502;10.030;2023-11-21T04:10:32;6.01;93.51
77727;SHT30;68312;53.502;10.030;2023-11-21T04:12:58;6.02;93.50
77727;SHT30;68312;53.502;10.030;2023-11-21T04:15:23;6.05;93.48
77727;SHT30;68312;53.502;10.030;2023-11-21T04:17:49;6.06;93.55
77727;SHT30;68312;53.502;10.030;2023-11-21T04:20:14;6.05;93.52
77727;SHT30;68312;53.502;10.030;2023-11-21T04:22:41;6.07;93.47
77727;SHT30;68312;53.502;10.030;2023-11-21T04:25:09;6.06;93.53
77727;SHT30;68312;53.502;10.030;2023-11-21T04:27:36;6.10;93.57
77727;SHT30;68312;53.502;10.030;2023-11-21T04:30:01;6.15;93.47
77727;SHT30;68312;53.502;10.030;2023-11-21T04:32:27;6.16;93.46
77727;SHT30;68312;53.502;10.030;2023-11-21T04:34:52;6.17;93.42
77727;SHT30;68312;53.502;10.030;2023-11-21T04:37:17;6.16;93.40
77727;SHT30;68312;53.502;10.030;2023-11-21T04:39:43;6.19;93.34
77727;SHT30;68312;53.502;10.030;2023-11-21T04:42:08;6.20;93.28
77727;SHT30;68312;53.502;10.030;2023-11-21T04:44:33;6.22;93.30
77727;SHT30;68312;53.502;10.030;2023-11-21T04:46:59;6.25;93.25
77727;SHT30;68312;53.502;10.030;2023-11-21T04:49:24;6.22;93.12
77727;SHT30;68312;53.502;10.030;2023-11-21T04:51:49;6.26;93.04
77727;SHT30;68312;53.502;10.030;2023-11-21T04:54:15;6.26;92.91
77727;SHT30;68312;53.502;10.030;2023-11-21T04:56:40;6.27;92.88
77727;SHT30;68312;53.502;10.030;2023-11-21T04:59:06;6.32;92.84
77727;SHT30;68312;53.502;10.030;2023-11-21T05:01:32;6.29;92.66
77727;SHT30;68312;53.502;10.030;2023-11-21T05:03:58;6.29;92.69
77727;SHT30;68312;53.502;10.030;2023-11-21T05:06:23;6.29;92.79
77727;SHT30;68312;53.502;10.030;2023-11-21T05:08:49;6.26;92.84
77727;SHT30;68312;53.502;10.030;2023-11-21T05:11:28;6.22;92.99
77727;SHT30;68312;53.502;10.030;2023-11-21T05:13:54;6.23;93.16
77727;SHT30;68312;53.502;10.030;2023-11-21T05:16:22;6.22;93.24
77727;SHT30;68312;53.502;10.030;2023-11-21T05:18:47;6.20;93.23
77727;SHT30;68312;53.502;10.030;2023-11-21T05:21:13;6.20;93.14
77727;SHT30;68312;53.502;10.030;2023-11-21T05:23:38;6.17;93.19
77727;SHT30;68312;53.502;10.030;2023-11-21T05:26:05;6.17;93.23
77727;SHT30;68312;53.502;10.030;2023-11-21T05:28:30;6.20;93.36
77727;SHT30;68312;53.502;10.030;2023-11-21T05:30:55;6.22;93.34
77727;SHT30;68312;53.502;10.030;2023-11-21T05:33:21;6.22;93.34
77727;SHT30;68312;53.502;10.030;2023-11-21T05:35:46;6.25;93.24
77727;SHT30;68312;53.502;10.030;2023-11-21T05:38:14;6.25;93.14
77727;SHT30;68312;53.502;10.030;2023-11-21T05:40:40;6.23;92.96
77727;SHT30;68312;53.502;10.030;2023-11-21T05:43:06;6.23;92.86
77727;SHT30;68312;53.502;10.030;2023-11-21T05:45:32;6.27;92.54
77727;SHT30;68312;53.502;10.030;2023-11-21T05:47:58;6.25;92.55
77727;SHT30;68312;53.502;10.030;2023-11-21T05:50:24;6.25;92.36
77727;SHT30;68312;53.502;10.030;2023-11-21T05:52:49;6.25;92.34
77727;SHT30;68312;53.502;10.030;2023-11-21T05:55:15;6.23;92.36
77727;SHT30;68312;53.502;10.030;2023-11-21T05:57:43;6.23;92.29
77727;SHT30;68312;53.502;10.030;2023-11-21T06:00:12;6.19;92.03
77727;SHT30;68312;53.502;10.030;2023-11-21T06:02:43;6.22;91.87
77727;SHT30;68312;53.502;10.030;2023-11-21T06:05:09;6.20;91.70
77727;SHT30;68312;53.502;10.030;2023-11-21T06:07:35;6.22;91.62
77727;SHT30;68312;53.502;10.030;2023-11-21T06:10:03;6.25;91.71
77727;SHT30;68312;53.502;10.030;2023-11-21T06:12:33;6.25;91.63
77727;SHT30;68312;53.502;10.030;2023-11-21T06:15:04;6.22;91.34
77727;SHT30;68312;53.502;10.030;2023-11-21T06:17:33;6.27;91.63
77727;SHT30;68312;53.502;10.030;2023-11-21T06:20:02;6.26;91.36
77727;SHT30;68312;53.502;10.030;2023-11-21T06:22:37;6.26;91.21
77727;SHT30;68312;53.502;10.030;2023-11-21T06:25:04;6.25;91.12
77727;SHT30;68312;53.502;10.030;2023-11-21T06:27:32;6.27;90.85
77727;SHT30;68312;53.502;10.030;2023-11-21T06:29:58;6.30;90.84
77727;SHT30;68312;53.502;10.030;2023-11-21T06:32:23;6.30;90.93
77727;SHT30;68312;53.502;10.030;2023-11-21T06:34:49;6.30;90.96
77727;SHT30;68312;53.502;10.030;2023-11-21T06:37:15;6.32;90.25
77727;SHT30;68312;53.502;10.030;2023-11-21T06:39:40;6.29;90.26
77727;SHT30;68312;53.502;10.030;2023-11-21T06:42:07;6.29;90.37
77727;SHT30;68312;53.502;10.030;2023-11-21T06:44:32;6.26;90.64
77727;SHT30;68312;53.502;10.030;2023-11-21T06:46:59;6.26;90.86
77727;SHT30;68312;53.502;10.030;2023-11-21T06:49:24;6.23;90.89
77727;SHT30;68312;53.502;10.030;2023-11-21T06:51:49;6.23;90.88
77727;SHT30;68312;53.502;10.030;2023-11-21T06:54:15;6.23;90.91
77727;SHT30;68312;53.502;10.030;2023-11-21T06:56:40;6.25;90.93
77727;SHT30;68312;53.502;10.030;2023-11-21T06:59:06;6.26;90.75
77727;SHT30;68312;53.502;10.030;2023-11-21T07:01:31;6.26;90.61
77727;SHT30;68312;53.502;10.030;2023-11-21T07:04:05;6.29;90.61
77727;SHT30;68312;53.502;10.030;2023-11-21T07:06:31;6.30;90.35
77727;SHT30;68312;53.502;10.030;2023-11-21T07:08:56;6.33;90.18
77727;SHT30;68312;53.502;10.030;2023-11-21T07:11:22;6.33;90.24
77727;SHT30;68312;53.502;10.030;2023-11-21T07:13:47;6.33;90.06
77727;SHT30;68312;53.502;10.030;2023-11-21T07:16:13;6.34;90.10
77727;SHT30;68312;53.502;10.030;2023-11-21T07:18:40;6.36;89.99
77727;SHT30;68312;53.502;10.030;2023-11-21T07:21:05;6.38;89.93
77727;SHT30;68312;53.502;10.030;2023-11-21T07:23:31;6.40;89.19
77727;SHT30;68312;53.502;10.030;2023-11-21T07:25:56;6.43;88.85
77727;SHT30;68312;53.502;10.030;2023-11-21T07:28:24;6.43;88.78
77727;SHT30;68312;53.502;10.030;2023-11-21T07:30:50;6.43;88.83
77727;SHT30;68312;53.502;10.030;2023-11-21T07:33:16;6.44;88.83
77727;SHT30;68312;53.502;10.030;2023-11-21T07:35:42;6.48;88.85
77727;SHT30;68312;53.502;10.030;2023-11-21T07:38:08;6.50;88.62
77727;SHT30;68312;53.502;10.030;2023-11-21T07:40:34;6.54;88.47
77727;SHT30;68312;53.502;10.030;2023-11-21T07:42:59;6.56;88.29
77727;SHT30;68312;53.502;10.030;2023-11-21T07:45:25;6.58;87.88
77727;SHT30;68312;53.502;10.030;2023-11-21T07:47:55;6.60;88.05
77727;SHT30;68312;53.502;10.030;2023-11-21T07:50:22;6.58;88.37
77727;SHT30;68312;53.502;10.030;2023-11-21T07:52:48;6.60;88.45
77727;SHT30;68312;53.502;10.030;2023-11-21T07:55:15;6.65;88.59
77727;SHT30;68312;53.502;10.030;2023-11-21T07:57:40;6.64;88.58
77727;SHT30;68312;53.502;10.030;2023-11-21T08:00:07;6.64;88.30
77727;SHT30;68312;53.502;10.030;2023-11-21T08:02:34;6.68;88.16
77727;SHT30;68312;53.502;10.030;2023-11-21T08:05:00;6.70;88.23
77727;SHT30;68312;53.502;10.030;2023-11-21T08:07:26;6.77;88.37
77727;SHT30;68312;53.502;10.030;2023-11-21T08:09:51;6.81;88.43
77727;SHT30;68312;53.502;10.030;2023-11-21T08:12:18;6.83;88.16
77727;SHT30;68312;53.502;10.030;2023-11-21T08:14:45;6.87;88.04
77727;SHT30;68312;53.502;10.030;2023-11-21T08:17:10;6.89;87.25
77727;SHT30;68312;53.502;10.030;2023-11-21T08:19:36;6.88;86.67
77727;SHT30;68312;53.502;10.030;2023-11-21T08:22:03;6.94;86.60
77727;SHT30;68312;53.502;10.030;2023-11-21T08:24:29;6.96;85.94
77727;SHT30;68312;53.502;10.030;2023-11-21T08:26:54;7.01;85.75
77727;SHT30;68312;53.502;10.030;2023-11-21T08:29:20;7.06;85.43
77727;SHT30;68312;53.502;10.030;2023-11-21T08:31:45;7.05;84.42
77727;SHT30;68312;53.502;10.030;2023-11-21T08:34:12;7.15;84.09
77727;SHT30;68312;53.502;10.030;2023-11-21T08:36:43;7.19;83.64
77727;SHT30;68312;53.502;10.030;2023-11-21T08:39:08;7.29;83.28
77727;SHT30;68312;53.502;10.030;2023-11-21T08:41:34;7.39;83.08
77727;SHT30;68312;53.502;10.030;2023-11-21T08:44:02;7.45;83.16
77727;SHT30;68312;53.502;10.030;2023-11-21T08:46:27;7.46;82.19
77727;SHT30;68312;53.502;10.030;2023-11-21T08:48:53;7.45;82.38
77727;SHT30;68312;53.502;10.030;2023-11-21T08:51:18;7.35;82.85
77727;SHT30;68312;53.502;10.030;2023-11-21T08:53:44;7.29;83.22
77727;SHT30;68312;53.502;10.030;2023-11-21T08:56:13;7.22;82.89
77727;SHT30;68312;53.502;10.030;2023-11-21T08:58:41;7.16;83.42
77727;SHT30;68312;53.502;10.030;2023-11-21T09:01:07;7.11;83.73
77727;SHT30;68312;53.502;10.030;2023-11-21T09:03:44;7.05;84.00
77727;SHT30;68312;53.502;10.030;2023-11-21T09:06:11;7.05;83.45
77727;SHT30;68312;53.502;10.030;2023-11-21T09:08:37;7.02;84.14
77727;SHT30;68312;53.502;10.030;2023-11-21T09:11:03;7.02;84.43
77727;SHT30;68312;53.502;10.030;2023-11-21T09:13:28;7.01;83.12
77727;SHT30;68312;53.502;10.030;2023-11-21T09:15:55;7.01;83.39
77727;SHT30;68312;53.502;10.030;2023-11-21T09:18:20;7.05;84.11
77727;SHT30;68312;53.502;10.030;2023-11-21T09:20:45;7.05;84.37
77727;SHT30;68312;53.502;10.030;2023-11-21T09:23:11;7.08;83.74
77727;SHT30;68312;53.502;10.030;2023-11-21T09:25:37;7.11;83.77
77727;SHT30;68312;53.502;10.030;2023-11-21T09:28:04;7.12;83.92
77727;SHT30;68312;53.502;10.030;2023-11-21T09:30:35;7.18;84.30
77727;SHT30;68312;53.502;10.030;2023-11-21T09:33:04;7.22;84.61
77727;SHT30;68312;53.502;10.030;2023-11-21T09:35:32;7.20;84.18
77727;SHT30;68312;53.502;10.030;2023-11-21T09:37:57;7.20;84.12
77727;SHT30;68312;53.502;10.030;2023-11-21T09:40:24;7.26;84.37
77727;SHT30;68312;53.502;10.030;2023-11-21T09:42:55;7.26;83.71
77727;SHT30;68312;53.502;10.030;2023-11-21T09:45:34;7.27;84.08
77727;SHT30;68312;53.502;10.030;2023-11-21T09:48:00;7.30;84.29
77727;SHT30;68312;53.502;10.030;2023-11-21T09:50:26;7.40;84.52
77727;SHT30;68312;53.502;10.030;2023-11-21T09:53:09;7.46;84.65
77727;SHT30;68312;53.502;10.030;2023-11-21T09:55:37;7.46;83.73
77727;SHT30;68312;53.502;10.030;2023-11-21T09:58:06;7.43;83.96
77727;SHT30;68312;53.502;10.030;2023-11-21T10:00:43;7.47;83.62
77727;SHT30;68312;53.502;10.030;2023-11-21T10:03:10;7.54;84.13
77727;SHT30;68312;53.502;10.030;2023-11-21T10:05:36;7.59;83.62
77727;SHT30;68312;53.502;10.030;2023-11-21T10:08:09;7.70;83.48
77727;SHT30;68312;53.502;10.030;2023-11-21T10:10:42;7.71;82.80
77727;SHT30;68312;53.502;10.030;2023-11-21T10:13:14;7.62;82.18
77727;SHT30;68312;53.502;10.030;2023-11-21T10:15:42;7.66;83.00
77727;SHT30;68312;53.502;10.030;2023-11-21T10:18:15;7.64;82.64
77727;SHT30;68312;53.502;10.030;2023-11-21T10:20:41;7.67;83.17
77727;SHT30;68312;53.502;10.030;2023-11-21T10:23:08;7.66;82.89
77727;SHT30;68312;53.502;10.030;2023-11-21T10:25:37;7.64;83.34
77727;SHT30;68312;53.502;10.030;2023-11-21T10:28:04;7.77;83.27
77727;SHT30;68312;53.502;10.030;2023-11-21T10:30:37;7.98;82.72
77727;SHT30;68312;53.502;10.030;2023-11-21T10:33:05;8.01;81.12
77727;SHT30;68312;53.502;10.030;2023-11-21T10:35:48;8.05;81.17
77727;SHT30;68312;53.502;10.030;2023-11-21T10:38:19;8.24;80.88
77727;SHT30;68312;53.502;10.030;2023-11-21T10:40:48;8.50;80.29
77727;SHT30;68312;53.502;10.030;2023-11-21T10:43:14;8.59;79.96
77727;SHT30;68312;53.502;10.030;2023-11-21T10:45:41;8.52;79.19
77727;SHT30;68312;53.502;10.030;2023-11-21T10:48:09;8.41;79.49
77727;SHT30;68312;53.502;10.030;2023-11-21T10:50:37;8.20;79.31
77727;SHT30;68312;53.502;10.030;2023-11-21T10:53:04;8.02;80.02
77727;SHT30;68312;53.502;10.030;2023-11-21T10:55:32;8.02;80.93
77727;SHT30;68312;53.502;10.030;2023-11-21T10:58:03;8.04;80.86
77727;SHT30;68312;53.502;10.030;2023-11-21T11:00:32;8.20;81.25
77727;SHT30;68312;53.502;10.030;2023-11-21T11:02:58;8.33;80.64
77727;SHT30;68312;53.502;10.030;2023-11-21T11:05:26;8.36;79.74
77727;SHT30;68312;53.502;10.030;2023-11-21T11:08:00;8.29;79.14
77727;SHT30;68312;53.502;10.030;2023-11-21T11:10:28;8.05;78.62
77727;SHT30;68312;53.502;10.030;2023-11-21T11:12:56;7.91;80.24
77727;SHT30;68312;53.502;10.030;2023-11-21T11:15:26;7.93;80.42
77727;SHT30;68312;53.502;10.030;2023-11-21T11:17:53;7.91;79.55
77727;SHT30;68312;53.502;10.030;2023-11-21T11:20:27;7.94;80.17
77727;SHT30;68312;53.502;10.030;2023-11-21T11:26:41;7.88;79.98
77727;SHT30;68312;53.502;10.030;2023-11-21T11:29:34;7.81;80.13
77727;SHT30;68312;53.502;10.030;2023-11-21T11:32:27;7.84;80.30
77727;SHT30;68312;53.502;10.030;2023-11-21T11:35:10;7.85;79.49
77727;SHT30;68312;53.502;10.030;2023-11-21T11:37:41;7.81;79.53
77727;SHT30;68312;53.502;10.030;2023-11-21T11:40:08;7.77;79.69
77727;SHT30;68312;53.502;10.030;2023-11-21T11:42:36;7.75;80.09
77727;SHT30;68312;53.502;10.030;2023-11-21T11:45:01;7.73;79.06
77727;SHT30;68312;53.502;10.030;2023-11-21T11:47:31;7.80;78.68
77727;SHT30;68312;53.502;10.030;2023-11-21T11:50:09;7.97;77.98
77727;SHT30;68312;53.502;10.030;2023-11-21T11:52:51;8.12;76.39
77727;SHT30;68312;53.502;10.030;2023-11-21T11:55:20;8.24;76.44
77727;SHT30;68312;53.502;10.030;2023-11-21T11:57:53;8.38;74.55
77727;SHT30;68312;53.502;10.030;2023-11-21T12:00:33;8.49;74.66
77727;SHT30;68312;53.502;10.030;2023-11-21T12:03:04;8.55;74.43
77727;SHT30;68312;53.502;10.030;2023-11-21T12:05:32;8.55;74.70
77727;SHT30;68312;53.502;10.030;2023-11-21T12:11:33;8.16;75.77
77727;SHT30;68312;53.502;10.030;2023-11-21T12:14:01;8.06;75.65
77727;SHT30;68312;53.502;10.030;2023-11-21T12:16:27;8.02;76.19
77727;SHT30;68312;53.502;10.030;2023-11-21T12:18:53;7.90;76.13
77727;SHT30;68312;53.502;10.030;2023-11-21T12:21:20;7.83;75.87
77727;SHT30;68312;53.502;10.030;2023-11-21T12:23:46;7.67;76.37
77727;SHT30;68312;53.502;10.030;2023-11-21T12:26:13;7.60;76.92
77727;SHT30;68312;53.502;10.030;2023-11-21T12:28:39;7.54;76.82
77727;SHT30;68312;53.502;10.030;2023-11-21T12:31:05;7.47;77.47
77727;SHT30;68312;53.502;10.030;2023-11-21T12:33:35;7.45;78.26
77727;SHT30;68312;53.502;10.030;2023-11-21T12:36:00;7.37;77.05
77727;SHT30;68312;53.502;10.030;2023-11-21T12:38:34;7.37;77.62
77727;SHT30;68312;53.502;10.030;2023-11-21T12:41:00;7.36;78.12
77727;SHT30;68312;53.502;10.030;2023-11-21T12:43:26;7.35;78.00
77727;SHT30;68312;53.502;10.030;2023-11-21T12:46:08;7.33;78.26
77727;SHT30;68312;53.502;10.030;2023-11-21T12:48:41;7.32;77.69
77727;SHT30;68312;53.502;10.030;2023-11-21T12:51:12;7.26;78.20
77727;SHT30;68312;53.502;10.030;2023-11-21T12:53:40;7.22;78.64
77727;SHT30;68312;53.502;10.030;2023-11-21T12:56:15;7.16;78.80
77727;SHT30;68312;53.502;10.030;2023-11-21T12:58:45;7.14;79.59
77727;SHT30;68312;53.502;10.030;2023-11-21T13:01:16;7.11;80.11
77727;SHT30;68312;53.502;10.030;2023-11-21T13:03:47;7.14;80.31
77727;SHT30;68312;53.502;10.030;2023-11-21T13:06:18;7.15;80.04
77727;SHT30;68312;53.502;10.030;2023-11-21T13:08:45;7.18;80.36
77727;SHT30;68312;53.502;10.030;2023-11-21T13:11:11;7.16;79.83
77727;SHT30;68312;53.502;10.030;2023-11-21T13:17:19;7.05;81.08
77727;SHT30;68312;53.502;10.030;2023-11-21T13:19:47;6.94;80.51
77727;SHT30;68312;53.502;10.030;2023-11-21T13:22:13;6.94;81.27
77727;SHT30;68312;53.502;10.030;2023-11-21T13:24:38;6.84;81.15
77727;SHT30;68312;53.502;10.030;2023-11-21T13:27:04;6.81;82.14
77727;SHT30;68312;53.502;10.030;2023-11-21T13:29:29;6.77;82.40
77727;SHT30;68312;53.502;10.030;2023-11-21T13:31:54;6.74;82.95
77727;SHT30;68312;53.502;10.030;2023-11-21T13:34:20;6.74;83.02
77727;SHT30;68312;53.502;10.030;2023-11-21T13:36:47;6.70;83.05
77727;SHT30;68312;53.502;10.030;2023-11-21T13:39:13;6.70;83.31
77727;SHT30;68312;53.502;10.030;2023-11-21T13:41:40;6.71;83.42
77727;SHT30;68312;53.502;10.030;2023-11-21T13:47:46;6.71;83.80
77727;SHT30;68312;53.502;10.030;2023-11-21T13:50:12;6.68;83.62
77727;SHT30;68312;53.502;10.030;2023-11-21T13:52:43;6.65;83.18
77727;SHT30;68312;53.502;10.030;2023-11-21T13:55:10;6.61;83.77
77727;SHT30;68312;53.502;10.030;2023-11-21T13:57:40;6.61;83.98
77727;SHT30;68312;53.502;10.030;2023-11-21T14:00:09;6.61;83.74
77727;SHT30;68312;53.502;10.030;2023-11-21T14:02:51;6.60;83.59
77727;SHT30;68312;53.502;10.030;2023-11-21T14:05:16;6.60;84.20
77727;SHT30;68312;53.502;10.030;2023-11-21T14:07:49;6.56;84.00
77727;SHT30;68312;53.502;10.030;2023-11-21T14:10:14;6.53;83.85
77727;SHT30;68312;53.502;10.030;2023-11-21T14:12:41;6.51;84.15
77727;SHT30;68312;53.502;10.030;2023-11-21T14:18:48;6.48;84.16
77727;SHT30;68312;53.502;10.030;2023-11-21T14:21:29;6.48;83.78
77727;SHT30;68312;53.502;10.030;2023-11-21T14:23:54;6.47;84.18
77727;SHT30;68312;53.502;10.030;2023-11-21T14:26:20;6.47;84.36
77727;SHT30;68312;53.502;10.030;2023-11-21T14:28:46;6.43;84.07
77727;SHT30;68312;53.502;10.030;2023-11-21T14:31:14;6.43;83.63
77727;SHT30;68312;53.502;10.030;2023-11-21T14:33:44;6.43;83.76
77727;SHT30;68312;53.502;10.030;2023-11-21T14:36:09;6.38;84.08
77727;SHT30;68312;53.502;10.030;2023-11-21T14:38:36;6.37;84.33
77727;SHT30;68312;53.502;10.030;2023-11-21T14:41:06;6.34;83.91
77727;SHT30;68312;53.502;10.030;2023-11-21T14:43:34;6.33;83.47
77727;SHT30;68312;53.502;10.030;2023-11-21T14:46:01;6.27;82.43
77727;SHT30;68312;53.502;10.030;2023-11-21T14:48:28;6.25;82.88
77727;SHT30;68312;53.502;10.030;2023-11-21T14:51:09;6.20;82.45
77727;SHT30;68312;53.502;10.030;2023-11-21T14:53:40;6.16;82.43
77727;SHT30;68312;53.502;10.030;2023-11-21T14:56:22;6.16;82.94
77727;SHT30;68312;53.502;10.030;2023-11-21T14:58:53;6.13;83.31
77727;SHT30;68312;53.502;10.030;2023-11-21T15:01:20;6.09;82.86
77727;SHT30;68312;53.502;10.030;2023-11-21T15:03:58;6.07;82.81
77727;SHT30;68312;53.502;10.030;2023-11-21T15:06:24;6.07;81.66
77727;SHT30;68312;53.502;10.030;2023-11-21T15:08:57;6.07;82.38
77727;SHT30;68312;53.502;10.030;2023-11-21T15:11:43;6.06;82.87
77727;SHT30;68312;53.502;10.030;2023-11-21T15:14:08;6.03;82.90
77727;SHT30;68312;53.502;10.030;2023-11-21T15:16:38;6.02;82.36
77727;SHT30;68312;53.502;10.030;2023-11-21T15:19:09;6.01;82.04
77727;SHT30;68312;53.502;10.030;2023-11-21T15:21:36;6.02;82.23
77727;SHT30;68312;53.502;10.030;2023-11-21T15:24:02;6.06;81.41
77727;SHT30;68312;53.502;10.030;2023-11-21T15:26:28;5.96;82.30
77727;SHT30;68312;53.502;10.030;2023-11-21T15:28:54;5.89;83.13
77727;SHT30;68312;53.502;10.030;2023-11-21T15:31:19;5.78;84.10
77727;SHT30;68312;53.502;10.030;2023-11-21T15:33:51;5.69;84.40
77727;SHT30;68312;53.502;10.030;2023-11-21T15:36:17;5.62;84.70
77727;SHT30;68312;53.502;10.030;2023-11-21T15:38:42;5.57;84.55
77727;SHT30;68312;53.502;10.030;2023-11-21T15:41:09;5.52;84.95
77727;SHT30;68312;53.502;10.030;2023-11-21T15:43:37;5.51;85.04
77727;SHT30;68312;53.502;10.030;2023-11-21T15:46:02;5.51;85.25
77727;SHT30;68312;53.502;10.030;2023-11-21T15:48:35;5.52;85.37
77727;SHT30;68312;53.502;10.030;2023-11-21T15:51:04;5.50;85.29